createdAt,value
2022-10-10T00:00:55.269Z,7.35
2022-10-10T00:03:30.071Z,7.60
2022-10-10T00:06:00.729Z,8.13
2022-10-10T00:08:33.922Z,7.93
2022-10-10T00:11:01.592Z,7.18
2022-10-10T00:13:36.563Z,7.55
2022-10-10T00:16:05.011Z,7.15
2022-10-10T00:18:42.623Z,6.55
2022-10-10T00:21:20.252Z,7.35
2022-10-10T00:23:49.928Z,6.88
2022-10-10T00:26:19.306Z,6.93
2022-10-10T00:28:46.917Z,6.60
2022-10-10T00:31:14.343Z,7.78
2022-10-10T00:33:42.012Z,7.35
2022-10-10T00:36:09.498Z,7.03
2022-10-10T00:38:40.542Z,6.95
2022-10-10T00:41:11.266Z,6.90
2022-10-10T00:43:40.746Z,6.55
2022-10-10T00:46:19.633Z,7.13
2022-10-10T00:48:52.568Z,6.72
2022-10-10T00:51:23.732Z,6.68
2022-10-10T00:53:59.859Z,7.28
2022-10-10T00:56:34.278Z,6.65
2022-10-10T00:59:08.749Z,6.05
2022-10-10T01:04:56.777Z,7.15
2022-10-10T01:07:36.839Z,6.65
2022-10-10T01:13:06.293Z,7.80
2022-10-10T01:15:35.569Z,7.90
2022-10-10T01:18:18.147Z,7.55
2022-10-10T01:21:01.723Z,7.20
2022-10-10T01:23:50.872Z,6.78
2022-10-10T01:26:24.153Z,8.02
2022-10-10T01:29:07.060Z,8.15
2022-10-10T01:31:40.779Z,8.20
2022-10-10T01:34:26.700Z,7.25
2022-10-10T01:36:56.332Z,7.80
2022-10-10T01:39:38.861Z,8.00
2022-10-10T01:42:19.629Z,7.43
2022-10-10T01:44:56.289Z,7.63
2022-10-10T01:47:39.361Z,7.20
2022-10-10T01:50:22.843Z,7.70
2022-10-10T01:53:14.525Z,7.75
2022-10-10T01:55:50.970Z,7.20
2022-10-10T01:58:36.877Z,8.52
2022-10-10T02:01:29.975Z,8.10
2022-10-10T02:07:34.182Z,7.43
2022-10-10T02:10:08.438Z,8.73
2022-10-10T02:12:48.129Z,8.93
2022-10-10T02:15:33.419Z,7.70
2022-10-10T02:18:21.937Z,8.05
2022-10-10T02:20:52.145Z,7.57
2022-10-10T02:23:37.203Z,8.70
2022-10-10T02:26:14.147Z,7.55
2022-10-10T02:28:59.147Z,7.57
2022-10-10T02:31:36.421Z,8.65
2022-10-10T02:34:17.318Z,8.52
2022-10-10T02:36:56.293Z,9.35
2022-10-10T02:42:10.309Z,9.02
2022-10-10T02:44:45.197Z,9.10
2022-10-10T02:47:21.112Z,8.73
2022-10-10T02:49:54.765Z,8.95
2022-10-10T02:52:28.499Z,7.88
2022-10-10T02:55:01.410Z,8.32
2022-10-10T02:57:34.857Z,8.43
2022-10-10T03:00:11.333Z,8.77
2022-10-10T03:02:49.634Z,9.35
2022-10-10T03:05:24.359Z,7.95
2022-10-10T03:08:05.840Z,9.38
2022-10-10T03:10:45.472Z,9.25
2022-10-10T03:13:15.956Z,8.38
2022-10-10T03:15:45.627Z,8.90
2022-10-10T03:18:28.285Z,9.23
2022-10-10T03:21:02.376Z,7.68
2022-10-10T03:23:36.111Z,8.43
2022-10-10T03:26:04.091Z,8.75
2022-10-10T03:28:31.370Z,8.60
2022-10-10T03:30:58.778Z,9.52
2022-10-10T03:33:31.549Z,9.35
2022-10-10T03:36:04.919Z,8.88
2022-10-10T03:38:37.194Z,8.82
2022-10-10T03:41:04.376Z,9.48
2022-10-10T03:43:39.094Z,9.40
2022-10-10T03:46:15.978Z,9.45
2022-10-10T03:48:43.748Z,8.23
2022-10-10T03:51:13.276Z,9.00
2022-10-10T03:53:48.934Z,9.60
2022-10-10T03:56:16.258Z,8.43
2022-10-10T03:58:43.534Z,9.20
2022-10-10T04:01:13.637Z,8.65
2022-10-10T04:03:41.082Z,8.57
2022-10-10T04:06:08.379Z,9.00
2022-10-10T04:08:46.118Z,8.40
2022-10-10T04:11:13.470Z,9.13
2022-10-10T04:13:40.720Z,8.23
2022-10-10T04:16:32.745Z,9.00
2022-10-10T04:19:12.860Z,8.93
2022-10-10T04:24:45.633Z,8.85
2022-10-10T04:27:22.084Z,10.38
2022-10-10T04:29:51.957Z,9.73
2022-10-10T04:32:33.762Z,8.98
2022-10-10T04:35:13.995Z,9.65
2022-10-10T04:37:43.780Z,9.13
2022-10-10T04:40:11.172Z,9.25
2022-10-10T04:42:39.733Z,9.82
2022-10-10T04:45:09.572Z,9.70
2022-10-10T04:47:36.811Z,8.68
2022-10-10T04:50:14.149Z,9.45
2022-10-10T04:52:41.363Z,9.07
2022-10-10T04:55:08.780Z,9.82
2022-10-10T04:57:35.954Z,9.88
2022-10-10T05:00:03.534Z,9.60
2022-10-10T05:02:30.632Z,10.55
2022-10-10T05:04:57.728Z,11.25
2022-10-10T05:07:25.139Z,11.00
2022-10-10T05:09:52.393Z,13.02
2022-10-10T05:12:19.665Z,11.00
2022-10-10T05:14:48.325Z,11.75
2022-10-10T05:17:15.740Z,10.45
2022-10-10T05:19:43.104Z,12.25
2022-10-10T05:22:10.303Z,9.98
2022-10-10T05:24:37.471Z,11.48
2022-10-10T05:27:04.653Z,12.73
2022-10-10T05:29:31.869Z,11.35
2022-10-10T05:31:59.122Z,11.60
2022-10-10T05:34:26.336Z,11.48
2022-10-10T05:36:55.405Z,11.27
2022-10-10T05:39:23.737Z,11.73
2022-10-10T05:41:51.027Z,12.77
2022-10-10T05:44:18.401Z,12.93
2022-10-10T05:46:45.717Z,13.82
2022-10-10T05:49:13.094Z,14.43
2022-10-10T05:51:42.533Z,13.38
2022-10-10T05:54:12.488Z,11.57
2022-10-10T05:56:39.843Z,11.73
2022-10-10T05:59:07.184Z,11.75
2022-10-10T06:01:34.466Z,11.77
2022-10-10T06:04:01.669Z,12.13
2022-10-10T06:06:28.949Z,12.18
2022-10-10T06:08:56.186Z,12.32
2022-10-10T06:11:25.192Z,10.88
2022-10-10T06:13:55.734Z,11.82
2022-10-10T06:16:24.988Z,10.38
2022-10-10T06:18:52.263Z,10.35
2022-10-10T06:21:20.000Z,10.60
2022-10-10T06:23:47.235Z,11.60
2022-10-10T06:26:16.030Z,10.52
2022-10-10T06:28:43.394Z,10.25
2022-10-10T06:31:12.055Z,10.30
2022-10-10T06:33:40.831Z,9.73
2022-10-10T06:36:08.662Z,10.07
2022-10-10T06:38:39.832Z,8.77
2022-10-10T06:41:07.332Z,9.43
2022-10-10T06:43:35.001Z,11.13
2022-10-10T06:46:02.646Z,9.70
2022-10-10T06:48:31.242Z,9.07
2022-10-10T06:51:02.991Z,9.55
2022-10-10T06:53:30.289Z,8.93
2022-10-10T06:55:57.681Z,8.18
2022-10-10T06:58:25.622Z,8.65
2022-10-10T07:00:58.113Z,8.13
2022-10-10T07:03:25.682Z,8.85
2022-10-10T07:08:36.768Z,9.10
2022-10-10T07:11:04.208Z,8.55
2022-10-10T07:13:31.797Z,8.68
2022-10-10T07:16:00.358Z,7.85
2022-10-10T07:18:27.735Z,8.13
2022-10-10T07:21:01.344Z,8.25
2022-10-10T07:23:32.132Z,8.18
2022-10-10T07:26:00.778Z,7.57
2022-10-10T07:28:30.824Z,8.18
2022-10-10T07:31:05.738Z,7.53
2022-10-10T07:33:48.852Z,6.85
2022-10-10T07:36:18.064Z,6.40
2022-10-10T07:38:45.251Z,6.25
2022-10-10T07:41:22.670Z,6.65
2022-10-10T07:43:58.741Z,5.88
2022-10-10T07:46:34.945Z,6.18
2022-10-10T07:49:10.029Z,4.93
2022-10-10T07:51:47.847Z,4.47
2022-10-10T07:54:17.774Z,5.60
2022-10-10T07:56:47.828Z,5.80
2022-10-10T07:59:21.507Z,4.63
2022-10-10T08:01:48.744Z,5.63
2022-10-10T08:04:16.666Z,5.45
2022-10-10T08:06:44.431Z,4.95
2022-10-10T08:09:11.638Z,4.90
2022-10-10T08:11:38.851Z,5.72
2022-10-10T08:14:08.097Z,5.65
2022-10-10T08:16:42.727Z,6.22
2022-10-10T08:19:10.013Z,5.88
2022-10-10T08:21:46.947Z,5.45
2022-10-10T08:24:21.184Z,5.97
2022-10-10T08:26:58.590Z,5.53
2022-10-10T08:29:28.819Z,6.40
2022-10-10T08:32:08.250Z,6.00
2022-10-10T08:34:44.283Z,5.53
2022-10-10T08:37:17.688Z,6.00
2022-10-10T08:42:46.911Z,5.40
2022-10-10T08:45:21.625Z,5.75
2022-10-10T08:50:22.925Z,4.95
2022-10-10T08:53:07.879Z,6.10
2022-10-10T08:55:42.819Z,6.38
2022-10-10T08:58:59.758Z,5.50
2022-10-10T09:04:31.657Z,5.68
2022-10-10T09:07:24.858Z,5.22
2022-10-10T09:10:11.330Z,5.75
2022-10-10T09:13:11.233Z,6.22
2022-10-10T09:16:01.804Z,5.60
2022-10-10T09:18:40.242Z,5.63
2022-10-10T09:21:21.533Z,5.70
2022-10-10T09:23:56.346Z,5.43
2022-10-10T09:26:35.842Z,6.38
2022-10-10T09:29:16.167Z,5.82
2022-10-10T09:31:45.825Z,6.72
2022-10-10T09:34:16.131Z,6.03
2022-10-10T09:36:43.553Z,6.25
2022-10-10T09:39:17.587Z,5.82
2022-10-10T09:41:56.343Z,6.50
2022-10-10T09:44:24.032Z,5.65
2022-10-10T09:46:52.384Z,5.22
2022-10-10T09:49:22.113Z,5.50
2022-10-10T09:51:50.365Z,6.05
2022-10-10T09:54:19.746Z,5.93
2022-10-10T09:56:59.645Z,5.07
2022-10-10T09:59:39.167Z,5.30
2022-10-10T10:02:20.610Z,5.57
2022-10-10T10:04:49.178Z,5.03
2022-10-10T10:07:26.362Z,5.15
2022-10-10T10:09:55.111Z,5.60
2022-10-10T10:12:28.844Z,5.20
2022-10-10T10:15:06.528Z,4.90
2022-10-10T10:17:34.060Z,5.50
2022-10-10T10:20:01.771Z,5.65
2022-10-10T10:22:39.359Z,5.78
2022-10-10T10:25:27.706Z,4.38
2022-10-10T10:28:13.314Z,4.95
2022-10-10T10:33:16.306Z,5.38
2022-10-10T10:35:55.403Z,5.60
2022-10-10T10:38:33.406Z,5.50
2022-10-10T10:41:04.276Z,5.40
2022-10-10T10:43:50.792Z,5.38
2022-10-10T10:46:26.335Z,5.28
2022-10-10T10:49:07.549Z,5.72
2022-10-10T10:51:52.409Z,5.25
2022-10-10T10:54:40.250Z,5.05
2022-10-10T10:57:43.824Z,5.55
2022-10-10T11:01:23.134Z,6.10
2022-10-10T11:05:18.612Z,5.22
2022-10-10T11:07:21.229Z,4.65
2022-10-10T11:09:56.708Z,4.72
2022-10-10T11:12:29.784Z,5.25
2022-10-10T11:15:19.793Z,4.97
2022-10-10T11:17:59.884Z,5.45
2022-10-10T11:20:34.718Z,5.80
2022-10-10T11:23:12.849Z,5.07
2022-10-10T11:25:47.200Z,5.13
2022-10-10T11:28:18.171Z,5.13
2022-10-10T11:30:47.640Z,5.28
2022-10-10T11:33:21.767Z,5.38
2022-10-10T11:35:53.888Z,5.68
2022-10-10T11:38:28.649Z,5.53
2022-10-10T11:41:01.664Z,5.43
2022-10-10T11:43:30.264Z,5.22
2022-10-10T11:46:04.825Z,5.20
2022-10-10T11:48:46.555Z,5.10
2022-10-10T11:51:26.566Z,5.47
2022-10-10T11:53:57.868Z,4.70
2022-10-10T11:56:33.856Z,5.30
2022-10-10T11:59:29.804Z,5.30
2022-10-10T12:02:16.228Z,4.03
2022-10-10T12:04:51.417Z,4.28
2022-10-10T12:07:32.099Z,4.15
2022-10-10T12:10:23.608Z,4.05
2022-10-10T12:12:59.532Z,4.10
2022-10-10T12:15:44.442Z,4.50
2022-10-10T12:18:45.341Z,4.65
2022-10-10T12:24:18.238Z,3.85
2022-10-10T12:26:59.984Z,4.10
2022-10-10T12:29:55.070Z,3.95
2022-10-10T12:35:38.157Z,4.57
2022-10-10T12:38:14.352Z,3.60
2022-10-10T12:41:08.740Z,3.95
2022-10-10T12:43:38.953Z,3.20
2022-10-10T12:46:26.982Z,4.28
2022-10-10T12:49:01.127Z,3.83
2022-10-10T12:51:30.206Z,3.47
2022-10-10T12:53:59.682Z,3.70
2022-10-10T12:56:53.708Z,3.72
2022-10-10T12:59:26.962Z,3.45
2022-10-10T13:01:58.129Z,3.30
2022-10-10T13:04:27.982Z,3.90
2022-10-10T13:06:57.864Z,2.97
2022-10-10T13:09:35.404Z,3.50
2022-10-10T13:12:08.183Z,3.42
2022-10-10T13:15:22.326Z,3.20
2022-10-10T13:18:17.733Z,3.97
2022-10-10T13:21:06.049Z,3.28
2022-10-10T13:26:46.887Z,3.13
2022-10-10T13:29:45.135Z,3.35
2022-10-10T13:32:35.038Z,3.33
2022-10-10T13:35:17.293Z,3.15
2022-10-10T13:38:24.162Z,3.00
2022-10-10T13:41:19.211Z,3.60
2022-10-10T13:43:58.491Z,3.15
2022-10-10T13:46:36.393Z,3.25
2022-10-10T13:49:31.895Z,2.90
2022-10-10T13:52:08.300Z,2.92
2022-10-10T13:54:51.988Z,3.50
2022-10-10T14:02:46.022Z,3.72
2022-10-10T14:05:22.878Z,3.35
2022-10-10T14:07:58.739Z,3.17
2022-10-10T14:10:29.697Z,3.92
2022-10-10T14:13:03.516Z,3.55
2022-10-10T14:15:48.014Z,3.30
2022-10-10T14:18:23.857Z,3.58
2022-10-10T14:20:56.397Z,4.00
2022-10-10T14:26:00.055Z,3.05
2022-10-10T14:28:34.831Z,4.03
2022-10-10T14:31:06.466Z,3.72
2022-10-10T14:33:36.156Z,3.60
2022-10-10T14:36:09.672Z,4.00
2022-10-10T14:38:40.001Z,3.75
2022-10-10T14:41:11.471Z,3.75
2022-10-10T14:43:47.007Z,3.33
2022-10-10T14:46:20.401Z,3.63
2022-10-10T14:48:55.208Z,3.70
2022-10-10T14:51:34.065Z,3.53
2022-10-10T14:54:10.225Z,4.32
2022-10-10T14:57:07.532Z,3.97
2022-10-10T14:59:46.062Z,3.90
2022-10-10T15:02:24.503Z,3.95
2022-10-10T15:04:54.494Z,4.32
2022-10-10T15:07:24.346Z,4.10
2022-10-10T15:10:31.498Z,3.97
2022-10-10T16:32:24.455Z,4.57
2022-10-10T16:34:54.072Z,4.60
2022-10-10T16:37:28.014Z,4.70
2022-10-10T16:40:01.187Z,4.30
2022-10-10T16:42:28.299Z,5.38
2022-10-10T16:44:55.509Z,5.57
2022-10-10T16:47:22.659Z,7.05
2022-10-10T16:49:50.009Z,5.90
2022-10-10T16:52:17.141Z,5.72
2022-10-10T16:54:45.493Z,7.13
2022-10-10T16:57:15.042Z,7.85
2022-10-10T16:59:42.165Z,8.35
2022-10-10T17:20:19.892Z,5.97
2022-10-10T17:22:47.021Z,6.03
2022-10-10T17:25:14.187Z,5.35
2022-10-10T17:27:42.289Z,4.80
2022-10-10T17:30:13.587Z,5.40
2022-10-10T17:32:42.053Z,4.53
2022-10-10T17:35:10.116Z,5.03
2022-10-10T17:37:37.402Z,5.28
2022-10-10T17:40:07.435Z,4.88
2022-10-10T17:42:35.189Z,5.25
2022-10-10T17:45:02.548Z,4.40
2022-10-10T17:47:29.747Z,5.43
2022-10-10T17:49:56.878Z,5.72
2022-10-10T17:52:25.224Z,5.13
2022-10-10T17:54:52.390Z,5.38
2022-10-10T17:57:19.826Z,5.72
2022-10-10T18:03:19.783Z,5.85
2022-10-10T18:05:46.947Z,5.18
2022-10-10T18:08:14.072Z,5.97
2022-10-10T18:10:41.660Z,7.63
2022-10-10T18:13:09.279Z,7.40
2022-10-10T18:15:36.431Z,6.25
2022-10-10T18:18:03.606Z,6.90
2022-10-10T18:20:30.893Z,7.53
2022-10-10T18:23:00.439Z,9.60
2022-10-10T18:25:27.976Z,11.15
2022-10-10T18:27:55.105Z,10.13
2022-10-10T18:30:22.299Z,9.02
2022-10-10T18:32:50.989Z,6.97
2022-10-10T18:35:20.889Z,8.23
2022-10-10T18:37:48.406Z,8.48
2022-10-10T18:40:16.778Z,8.23
2022-10-10T18:42:44.025Z,8.23
2022-10-10T18:45:11.296Z,8.23
2022-10-10T18:47:38.402Z,9.35
2022-10-10T18:50:05.740Z,8.48
2022-10-10T18:52:33.166Z,8.55
2022-10-10T18:55:00.264Z,8.00
2022-10-10T18:57:27.403Z,9.18
2022-10-10T18:59:55.049Z,8.90
2022-10-10T19:02:22.190Z,8.93
2022-10-10T19:04:50.819Z,9.57
2022-10-10T19:07:18.051Z,9.32
2022-10-10T19:09:45.183Z,9.45
2022-10-10T19:12:12.370Z,10.82
2022-10-10T19:14:39.554Z,10.85
2022-10-10T19:17:06.718Z,10.25
2022-10-10T19:19:33.827Z,10.93
2022-10-10T19:22:00.950Z,14.90
2022-10-10T19:24:28.086Z,11.60
2022-10-10T19:26:56.648Z,9.20
2022-10-10T19:29:24.955Z,7.40
2022-10-10T19:31:52.644Z,5.90
2022-10-10T19:34:19.873Z,6.43
2022-10-10T19:36:47.047Z,5.47
2022-10-10T19:39:14.221Z,6.82
2022-10-10T19:41:41.552Z,6.57
2022-10-10T19:44:08.985Z,7.05
2022-10-10T19:46:37.639Z,6.50
2022-10-10T19:49:05.236Z,6.45
2022-10-10T19:51:32.382Z,6.35
2022-10-10T19:53:59.570Z,6.50
2022-10-10T19:56:26.778Z,6.90
2022-10-10T19:58:55.242Z,5.93
2022-10-10T20:01:28.155Z,6.50
2022-10-10T20:03:56.890Z,5.40
2022-10-10T20:06:24.105Z,5.57
2022-10-10T20:08:51.359Z,6.50
2022-10-10T20:11:20.180Z,5.57
2022-10-10T20:13:47.640Z,6.35
2022-10-10T20:16:15.736Z,6.53
2022-10-10T20:18:43.252Z,6.65
2022-10-10T20:21:16.922Z,7.10
2022-10-10T20:23:45.003Z,7.60
2022-10-10T20:26:15.107Z,6.88
2022-10-10T20:28:42.356Z,7.65
2022-10-10T20:31:22.623Z,7.65
2022-10-10T20:33:50.824Z,10.00
2022-10-10T20:36:18.295Z,8.18
2022-10-10T20:38:45.840Z,8.73
2022-10-10T20:41:13.092Z,8.20
2022-10-10T20:43:40.342Z,7.38
2022-10-10T20:46:12.941Z,8.02
2022-10-10T20:51:09.099Z,7.07
2022-10-10T20:53:36.868Z,8.00
2022-10-10T20:56:05.438Z,8.43
2022-10-10T20:58:33.322Z,7.22
2022-10-10T21:01:11.518Z,7.30
2022-10-10T21:03:39.068Z,8.15
2022-10-10T21:06:07.764Z,7.97
2022-10-10T21:08:35.341Z,7.65
2022-10-10T21:11:05.250Z,8.38
2022-10-10T21:13:33.455Z,7.97
2022-10-10T21:16:00.912Z,8.80
2022-10-10T21:18:28.459Z,7.60
2022-10-10T21:21:00.548Z,8.65
2022-10-10T21:23:28.477Z,6.93
2022-10-10T21:25:55.647Z,7.57
2022-10-10T21:28:23.080Z,6.80
2022-10-10T21:30:51.267Z,6.60
2022-10-10T21:33:21.599Z,6.63
2022-10-10T21:35:51.073Z,6.95
2022-10-10T21:38:18.264Z,6.82
2022-10-10T21:40:48.095Z,6.40
2022-10-10T21:43:15.834Z,7.15
2022-10-10T21:45:43.223Z,7.30
2022-10-10T21:48:11.437Z,8.15
2022-10-10T21:50:39.173Z,8.30
2022-10-10T21:53:07.355Z,6.75
2022-10-10T21:55:34.668Z,7.10
2022-10-10T21:58:01.945Z,6.65
2022-10-10T22:00:29.238Z,7.43
2022-10-10T22:02:56.451Z,6.75
2022-10-10T22:05:23.703Z,6.60
2022-10-10T22:07:50.856Z,7.32
2022-10-10T22:10:19.618Z,7.68
2022-10-10T22:12:46.811Z,7.20
2022-10-10T22:15:14.307Z,6.63
2022-10-10T22:17:41.519Z,6.85
2022-10-10T22:20:10.015Z,6.95
2022-10-10T22:22:37.772Z,7.15
2022-10-10T22:25:05.431Z,8.05
2022-10-10T22:27:32.544Z,7.00
2022-10-10T22:29:59.789Z,8.07
2022-10-10T22:32:26.951Z,7.68
2022-10-10T22:34:54.121Z,7.07
2022-10-10T22:37:21.281Z,6.68
2022-10-10T22:39:48.522Z,8.13
2022-10-10T22:42:15.646Z,7.97
2022-10-10T22:44:42.895Z,7.07
2022-10-10T22:47:10.091Z,8.07
2022-10-10T22:49:37.990Z,7.32
2022-10-10T22:52:05.861Z,6.43
2022-10-10T22:54:33.228Z,6.68
2022-10-10T22:57:00.376Z,6.63
2022-10-10T22:59:27.901Z,5.85
2022-10-10T23:01:55.206Z,6.68
2022-10-10T23:04:23.055Z,6.30
2022-10-10T23:06:50.678Z,6.68
2022-10-10T23:09:18.231Z,6.45
2022-10-10T23:11:45.472Z,7.32
2022-10-10T23:14:12.654Z,6.65
2022-10-10T23:16:40.838Z,7.40
2022-10-10T23:19:08.377Z,6.53
2022-10-10T23:21:35.588Z,5.65
2022-10-10T23:24:02.977Z,6.28
2022-10-10T23:26:30.176Z,7.07
2022-10-10T23:28:57.413Z,7.28
2022-10-10T23:31:24.723Z,6.78
2022-10-10T23:33:51.948Z,7.00
2022-10-10T23:36:19.075Z,7.32
2022-10-10T23:38:46.255Z,7.30
2022-10-10T23:41:14.089Z,7.60
2022-10-10T23:43:41.970Z,7.57
2022-10-10T23:46:09.491Z,6.97
2022-10-10T23:48:37.007Z,7.65
2022-10-10T23:51:04.483Z,7.68
2022-10-10T23:53:31.636Z,7.50
2022-10-10T23:55:58.832Z,7.13
2022-10-10T23:58:26.113Z,6.90
